createdAt,value
2022-08-10T00:00:34.653Z,74.16
2022-08-10T00:01:38.579Z,74.08
2022-08-10T00:02:41.620Z,73.84
2022-08-10T00:03:44.113Z,74.28
2022-08-10T00:04:46.659Z,73.83
2022-08-10T00:05:53.181Z,74.17
2022-08-10T00:06:54.921Z,73.45
2022-08-10T00:07:57.697Z,73.45
2022-08-10T00:09:00.111Z,73.46
2022-08-10T00:10:03.996Z,73.05
2022-08-10T00:11:07.306Z,73.05
2022-08-10T00:12:11.476Z,72.89
2022-08-10T00:13:13.872Z,73.48
2022-08-10T00:14:16.417Z,73.72
2022-08-10T00:15:52.301Z,73.54
2022-08-10T00:16:25.698Z,73.48
2022-08-10T00:17:28.233Z,72.99
2022-08-10T00:18:35.353Z,72.92
2022-08-10T00:20:03.395Z,72.84
2022-08-10T00:20:41.561Z,72.91
2022-08-10T00:21:45.319Z,73.27
2022-08-10T00:22:48.852Z,72.90
2022-08-10T00:23:52.308Z,72.88
2022-08-10T00:24:54.746Z,72.99
2022-08-10T00:25:57.131Z,72.93
2022-08-10T00:27:52.278Z,73.44
2022-08-10T00:28:04.432Z,73.29
2022-08-10T00:29:08.354Z,74.03
2022-08-10T00:30:12.425Z,73.46
2022-08-10T00:31:14.780Z,73.56
2022-08-10T00:32:17.157Z,73.30
2022-08-10T00:33:19.621Z,73.26
2022-08-10T00:34:21.969Z,73.33
2022-08-10T00:35:24.387Z,72.90
2022-08-10T00:36:27.029Z,72.77
2022-08-10T00:37:31.246Z,73.13
2022-08-10T00:38:33.546Z,73.40
2022-08-10T00:39:39.638Z,73.95
2022-08-10T00:40:41.892Z,73.98
2022-08-10T00:41:44.434Z,74.11
2022-08-10T00:42:46.680Z,74.31
2022-08-10T00:43:49.094Z,74.69
2022-08-10T00:44:51.401Z,75.34
2022-08-10T00:45:58.599Z,75.24
2022-08-10T00:46:58.352Z,75.52
2022-08-10T00:48:01.350Z,74.91
2022-08-10T00:49:03.846Z,75.24
2022-08-10T00:50:07.624Z,75.53
2022-08-10T00:51:11.092Z,75.80
2022-08-10T00:52:14.825Z,75.12
2022-08-10T00:53:17.358Z,75.66
2022-08-10T00:54:24.163Z,75.62
2022-08-10T00:55:24.420Z,75.53
2022-08-10T00:56:41.668Z,75.64
2022-08-10T00:57:33.878Z,75.31
2022-08-10T00:58:38.021Z,74.39
2022-08-10T00:59:57.627Z,74.40
2022-08-10T01:00:47.304Z,73.91
2022-08-10T01:02:09.376Z,74.21
2022-08-10T01:02:54.038Z,74.12
2022-08-10T01:04:39.996Z,74.38
2022-08-10T01:05:09.776Z,75.03
2022-08-10T01:06:28.064Z,74.68
2022-08-10T01:09:11.706Z,75.04
2022-08-10T01:10:43.577Z,75.31
2022-08-10T01:12:39.510Z,74.90
2022-08-10T01:13:12.682Z,75.50
2022-08-10T01:14:31.377Z,75.95
2022-08-10T01:15:40.414Z,76.31
2022-08-10T01:16:52.597Z,76.22
2022-08-10T01:18:10.823Z,76.69
2022-08-10T01:19:22.859Z,76.45
2022-08-10T01:20:44.051Z,76.82
2022-08-10T01:21:57.111Z,76.91
2022-08-10T01:23:24.698Z,77.13
2022-08-10T01:24:48.714Z,76.94
2022-08-10T01:26:11.743Z,77.04
2022-08-10T01:27:17.273Z,76.69
2022-08-10T01:28:55.142Z,77.07
2022-08-10T01:30:09.319Z,76.98
2022-08-10T01:31:15.383Z,76.55
2022-08-10T01:32:21.272Z,76.97
2022-08-10T01:33:31.790Z,76.79
2022-08-10T01:34:38.103Z,76.71
2022-08-10T01:36:02.604Z,77.10
2022-08-10T01:37:08.757Z,77.24
2022-08-10T01:38:20.382Z,77.56
2022-08-10T01:39:26.331Z,78.03
2022-08-10T01:40:31.883Z,77.98
2022-08-10T01:41:46.098Z,77.71
2022-08-10T01:42:47.496Z,77.66
2022-08-10T01:44:05.523Z,77.91
2022-08-10T01:45:10.653Z,78.71
2022-08-10T01:46:14.967Z,78.87
2022-08-10T01:47:22.255Z,79.48
2022-08-10T01:49:37.198Z,79.91
2022-08-10T01:50:59.252Z,79.38
2022-08-10T01:51:53.840Z,79.40
2022-08-10T01:52:59.960Z,80.08
2022-08-10T01:54:12.771Z,80.20
2022-08-10T01:55:14.896Z,80.71
2022-08-10T01:56:20.190Z,80.52
2022-08-10T01:57:24.814Z,80.65
2022-08-10T01:58:29.774Z,80.97
2022-08-10T01:59:37.502Z,81.03
2022-08-10T02:00:42.701Z,81.50
2022-08-10T02:01:51.504Z,81.13
2022-08-10T02:02:56.014Z,81.52
2022-08-10T02:04:04.796Z,81.64
2022-08-10T02:05:08.293Z,81.90
2022-08-10T02:06:14.158Z,81.80
2022-08-10T02:07:25.679Z,81.60
2022-08-10T02:08:30.167Z,81.75
2022-08-10T02:09:36.042Z,82.01
2022-08-10T02:10:43.099Z,81.62
2022-08-10T02:12:06.755Z,82.09
2022-08-10T02:12:51.520Z,81.87
2022-08-10T02:13:55.702Z,81.74
2022-08-10T02:15:07.792Z,82.21
2022-08-10T02:16:12.733Z,83.09
2022-08-10T02:17:58.056Z,83.52
2022-08-10T02:18:24.464Z,83.51
2022-08-10T02:19:29.408Z,83.41
2022-08-10T02:20:38.162Z,83.21
2022-08-10T02:22:34.766Z,83.23
2022-08-10T02:22:54.016Z,83.18
2022-08-10T02:23:59.706Z,82.67
2022-08-10T02:25:05.298Z,82.83
2022-08-10T02:26:10.563Z,82.78
2022-08-10T02:27:14.934Z,82.55
2022-08-10T02:28:27.512Z,83.62
2022-08-10T02:29:27.810Z,83.23
2022-08-10T02:30:31.916Z,83.22
2022-08-10T02:31:35.851Z,83.96
2022-08-10T02:32:38.980Z,83.44
2022-08-10T02:33:56.484Z,84.22
2022-08-10T02:34:50.727Z,84.05
2022-08-10T02:35:55.995Z,84.37
2022-08-10T02:37:02.301Z,84.35
2022-08-10T02:38:09.186Z,84.58
2022-08-10T02:39:13.034Z,84.99
2022-08-10T02:45:01.997Z,85.01
2022-08-10T02:45:13.002Z,85.50
2022-08-10T02:45:17.698Z,85.60
2022-08-10T02:45:20.720Z,85.88
2022-08-10T02:45:22.578Z,85.37
2022-08-10T02:46:18.219Z,86.16
2022-08-10T02:47:52.263Z,86.05
2022-08-10T02:49:04.150Z,85.92
2022-08-10T02:50:13.385Z,86.18
2022-08-10T02:52:07.476Z,85.78
2022-08-10T02:53:56.133Z,86.33
2022-08-10T02:54:57.792Z,86.53
2022-08-10T02:56:11.703Z,86.61
2022-08-10T02:57:20.308Z,86.88
2022-08-10T02:58:35.281Z,87.05
2022-08-10T02:59:43.847Z,86.28
2022-08-10T03:00:49.882Z,86.19
2022-08-10T03:01:55.982Z,86.19
2022-08-10T03:03:00.324Z,85.79
2022-08-10T03:04:08.641Z,86.94
2022-08-10T03:05:13.583Z,86.66
2022-08-10T03:06:20.051Z,86.41
2022-08-10T03:07:44.236Z,86.21
2022-08-10T03:08:32.870Z,86.35
2022-08-10T03:10:50.067Z,86.11
2022-08-10T03:12:36.177Z,85.86
2022-08-10T03:14:15.117Z,86.23
2022-08-10T03:15:20.063Z,86.37
2022-08-10T03:16:25.800Z,85.40
2022-08-10T03:17:32.581Z,85.33
2022-08-10T03:18:36.902Z,85.66
2022-08-10T03:20:34.082Z,85.65
2022-08-10T03:20:47.457Z,85.76
2022-08-10T03:21:52.429Z,87.56
2022-08-10T03:22:55.979Z,87.31
2022-08-10T03:23:59.790Z,87.86
2022-08-10T03:25:02.841Z,88.40
2022-08-10T03:26:06.869Z,88.57
2022-08-10T03:27:10.885Z,88.37
2022-08-10T03:28:18.221Z,88.15
2022-08-10T03:29:21.274Z,88.18
2022-08-10T03:30:32.165Z,88.36
2022-08-10T03:31:30.227Z,88.10
2022-08-10T03:32:33.822Z,87.78
2022-08-10T03:33:40.026Z,87.27
2022-08-10T03:34:42.769Z,87.05
2022-08-10T03:36:40.341Z,87.32
2022-08-10T03:36:49.699Z,88.11
2022-08-10T03:37:52.108Z,88.23
2022-08-10T03:38:56.798Z,87.71
2022-08-10T03:39:59.200Z,87.57
2022-08-10T03:41:04.546Z,87.58
2022-08-10T03:42:09.909Z,87.14
2022-08-10T03:43:18.038Z,87.71
2022-08-10T03:44:23.178Z,87.48
2022-08-10T03:45:27.781Z,87.85
2022-08-10T03:46:37.269Z,87.09
2022-08-10T03:47:42.368Z,87.17
2022-08-10T03:48:49.724Z,88.29
2022-08-10T03:49:55.408Z,87.51
2022-08-10T03:50:59.466Z,87.79
2022-08-10T03:52:02.139Z,87.15
2022-08-10T03:53:04.696Z,86.66
2022-08-10T03:54:08.063Z,86.36
2022-08-10T03:55:11.116Z,86.20
2022-08-10T03:56:28.982Z,86.74
2022-08-10T03:57:21.427Z,86.23
2022-08-10T03:58:24.012Z,87.09
2022-08-10T03:59:26.314Z,87.68
2022-08-10T04:00:31.819Z,87.98
2022-08-10T04:02:43.205Z,87.83
2022-08-10T04:02:52.768Z,87.59
2022-08-10T04:03:44.930Z,87.04
2022-08-10T04:04:47.330Z,86.29
2022-08-10T04:05:49.704Z,86.13
2022-08-10T04:06:54.285Z,86.97
2022-08-10T04:07:59.011Z,87.09
2022-08-10T04:09:01.910Z,87.02
2022-08-10T04:10:06.172Z,87.58
2022-08-10T04:11:11.462Z,87.41
2022-08-10T04:12:14.550Z,86.96
2022-08-10T04:13:17.156Z,87.20
2022-08-10T04:14:35.609Z,86.80
2022-08-10T04:15:23.893Z,86.65
2022-08-10T04:16:28.545Z,86.45
2022-08-10T04:18:04.906Z,86.56
2022-08-10T04:18:35.268Z,86.29
2022-08-10T04:19:41.101Z,86.09
2022-08-10T04:22:15.144Z,85.82
2022-08-10T04:23:26.923Z,86.47
2022-08-10T04:24:33.037Z,86.83
2022-08-10T04:25:37.942Z,86.27
2022-08-10T04:26:41.167Z,86.31
2022-08-10T04:27:44.553Z,85.98
2022-08-10T04:28:47.624Z,86.16
2022-08-10T04:29:49.887Z,85.91
2022-08-10T04:30:54.023Z,86.33
2022-08-10T04:31:56.317Z,86.95
2022-08-10T04:33:01.576Z,86.34
2022-08-10T04:34:08.868Z,85.99
2022-08-10T04:35:11.428Z,86.51
2022-08-10T04:36:16.366Z,85.84
2022-08-10T04:37:20.594Z,85.08
2022-08-10T04:38:25.720Z,84.79
2022-08-10T04:39:28.698Z,84.34
2022-08-10T04:40:31.468Z,84.71
2022-08-10T04:41:34.277Z,84.47
2022-08-10T04:42:37.686Z,85.01
2022-08-10T04:43:40.264Z,84.82
2022-08-10T04:44:42.962Z,84.44
2022-08-10T04:45:47.715Z,83.52
2022-08-10T04:46:55.711Z,82.96
2022-08-10T04:48:00.292Z,82.77
2022-08-10T04:49:01.546Z,83.60
2022-08-10T04:50:04.282Z,84.04
2022-08-10T04:51:08.110Z,83.59
2022-08-10T04:52:12.502Z,83.51
2022-08-10T04:53:14.949Z,83.58
2022-08-10T04:54:17.358Z,82.96
2022-08-10T04:55:20.369Z,83.49
2022-08-10T04:56:31.789Z,82.46
2022-08-10T04:57:28.023Z,82.66
2022-08-10T04:58:30.542Z,82.03
2022-08-10T04:59:32.995Z,82.19
2022-08-10T05:00:38.343Z,82.67
2022-08-10T05:02:28.776Z,83.05
2022-08-10T05:02:45.712Z,83.54
2022-08-10T05:04:35.055Z,84.01
2022-08-10T05:04:52.481Z,83.27
2022-08-10T05:05:54.648Z,82.00
2022-08-10T05:06:59.757Z,80.95
2022-08-10T05:08:02.228Z,80.66
2022-08-10T05:09:04.598Z,80.25
2022-08-10T05:10:11.598Z,80.25
2022-08-10T05:11:12.392Z,80.26
2022-08-10T05:12:17.139Z,81.16
2022-08-10T05:13:19.472Z,81.55
2022-08-10T05:14:22.040Z,81.19
2022-08-10T05:15:24.474Z,80.86
2022-08-10T05:16:31.856Z,82.18
2022-08-10T05:17:34.104Z,81.45
2022-08-10T05:18:36.722Z,81.44
2022-08-10T05:20:03.841Z,80.83
2022-08-10T05:20:46.195Z,80.41
2022-08-10T05:21:56.391Z,79.69
2022-08-10T05:22:52.147Z,80.11
2022-08-10T05:23:54.564Z,79.85
2022-08-10T05:24:56.785Z,80.54
2022-08-10T05:25:58.978Z,79.57
2022-08-10T05:27:10.231Z,79.11
2022-08-10T05:28:06.975Z,79.38
2022-08-10T05:29:09.543Z,81.32
2022-08-10T05:30:15.872Z,80.47
2022-08-10T05:31:22.465Z,80.58
2022-08-10T05:32:22.466Z,80.92
2022-08-10T05:33:24.821Z,80.86
2022-08-10T05:34:27.600Z,80.21
2022-08-10T05:35:56.438Z,80.06
2022-08-10T05:36:36.011Z,80.16
2022-08-10T05:38:08.938Z,80.44
2022-08-10T05:38:46.224Z,80.24
2022-08-10T05:39:49.693Z,80.12
2022-08-10T05:40:53.652Z,80.68
2022-08-10T05:41:57.988Z,81.96
2022-08-10T05:43:03.081Z,82.24
2022-08-10T05:44:05.653Z,82.12
2022-08-10T05:46:24.415Z,82.97
2022-08-10T05:47:27.121Z,82.80
2022-08-10T05:48:54.320Z,83.82
2022-08-10T05:49:39.293Z,83.92
2022-08-10T05:50:42.200Z,82.84
2022-08-10T05:51:44.890Z,83.14
2022-08-10T05:52:47.557Z,83.33
2022-08-10T05:54:00.910Z,83.19
2022-08-10T05:54:55.540Z,82.82
2022-08-10T05:55:59.342Z,82.03
2022-08-10T05:57:01.930Z,82.42
2022-08-10T05:58:04.812Z,82.41
2022-08-10T05:59:09.345Z,83.49
2022-08-10T06:00:36.906Z,82.72
2022-08-10T06:01:23.469Z,82.66
2022-08-10T06:02:35.778Z,81.94
2022-08-10T06:03:51.195Z,82.07
2022-08-10T06:04:59.779Z,81.70
2022-08-10T06:06:05.570Z,81.79
2022-08-10T06:07:10.655Z,81.37
2022-08-10T06:08:21.190Z,81.40
2022-08-10T06:09:25.594Z,81.18
2022-08-10T06:10:32.000Z,81.04
2022-08-10T06:12:27.062Z,80.85
2022-08-10T06:12:54.457Z,81.23
2022-08-10T06:13:59.722Z,81.37
2022-08-10T06:14:59.869Z,81.77
2022-08-10T06:16:02.978Z,82.32
2022-08-10T06:17:06.852Z,83.08
2022-08-10T06:18:09.225Z,83.53
2022-08-10T06:19:14.805Z,82.72
2022-08-10T06:20:19.217Z,82.58
2022-08-10T06:21:22.740Z,81.87
2022-08-10T06:22:29.601Z,82.92
2022-08-10T06:23:33.059Z,82.58
2022-08-10T06:24:50.978Z,82.12
2022-08-10T06:26:09.708Z,81.73
2022-08-10T06:26:45.687Z,81.12
2022-08-10T06:27:48.733Z,81.71
2022-08-10T06:29:03.673Z,82.03
2022-08-10T06:30:20.444Z,82.96
2022-08-10T06:31:15.103Z,82.48
2022-08-10T06:32:19.694Z,83.45
2022-08-10T06:33:25.971Z,83.68
2022-08-10T06:34:43.818Z,83.32
2022-08-10T06:35:54.605Z,82.35
2022-08-10T06:36:59.788Z,81.79
2022-08-10T06:38:05.009Z,82.52
2022-08-10T06:39:31.845Z,82.48
2022-08-10T06:40:13.258Z,82.02
2022-08-10T06:41:22.357Z,82.04
2022-08-10T06:42:32.723Z,81.63
2022-08-10T06:43:38.081Z,81.35
2022-08-10T06:44:46.890Z,81.74
2022-08-10T06:46:07.734Z,81.66
2022-08-10T06:47:08.775Z,80.96
2022-08-10T06:48:16.353Z,80.91
2022-08-10T06:49:21.709Z,80.29
2022-08-10T06:50:34.436Z,79.78
2022-08-10T06:51:41.617Z,79.64
2022-08-10T06:52:46.267Z,80.81
2022-08-10T06:53:53.997Z,80.32
2022-08-10T06:54:59.626Z,80.74
2022-08-10T06:56:12.911Z,79.65
2022-08-10T06:57:18.208Z,79.13
2022-08-10T06:58:26.592Z,78.65
2022-08-10T06:59:45.448Z,77.59
2022-08-10T07:00:51.847Z,77.73
2022-08-10T07:02:03.637Z,78.07
2022-08-10T07:03:11.083Z,78.85
2022-08-10T07:04:16.937Z,78.97
2022-08-10T07:06:36.765Z,78.41
2022-08-10T07:07:42.195Z,78.14
2022-08-10T07:08:45.504Z,78.11
2022-08-10T07:09:50.688Z,79.04
2022-08-10T07:10:53.813Z,78.63
2022-08-10T07:12:08.552Z,78.18
2022-08-10T07:13:04.835Z,78.77
2022-08-10T07:14:15.664Z,78.57
2022-08-10T07:15:15.028Z,78.09
2022-08-10T07:16:19.149Z,77.53
2022-08-10T07:17:23.934Z,77.72
2022-08-10T07:18:27.895Z,78.67
2022-08-10T07:19:32.970Z,77.98
2022-08-10T07:20:35.550Z,77.26
2022-08-10T07:21:40.835Z,78.36
2022-08-10T07:23:01.503Z,78.09
2022-08-10T07:23:57.699Z,78.18
2022-08-10T07:24:57.897Z,77.78
2022-08-10T07:26:02.842Z,78.35
2022-08-10T07:27:08.338Z,77.94
2022-08-10T07:28:12.940Z,78.28
2022-08-10T07:29:53.905Z,78.53
2022-08-10T07:30:25.503Z,78.53
2022-08-10T07:31:55.099Z,78.62
2022-08-10T07:32:35.808Z,79.04
2022-08-10T07:33:41.061Z,79.12
2022-08-10T07:34:45.298Z,79.35
2022-08-10T07:35:49.028Z,79.22
2022-08-10T07:36:52.903Z,80.38
2022-08-10T07:37:57.676Z,79.57
2022-08-10T07:39:01.482Z,79.64
2022-08-10T07:40:05.601Z,80.30
2022-08-10T07:41:09.195Z,79.39
2022-08-10T07:42:13.648Z,79.32
2022-08-10T07:43:18.361Z,79.50
2022-08-10T07:44:23.586Z,79.82
2022-08-10T07:45:29.673Z,79.27
2022-08-10T07:46:35.441Z,78.62
2022-08-10T07:47:46.338Z,77.53
2022-08-10T07:48:49.253Z,77.00
2022-08-10T07:49:53.932Z,76.51
2022-08-10T07:50:59.684Z,76.54
2022-08-10T07:52:05.799Z,77.11
2022-08-10T07:53:11.582Z,77.77
2022-08-10T07:54:14.388Z,78.84
2022-08-10T07:55:19.601Z,79.64
2022-08-10T07:56:47.915Z,78.80
2022-08-10T07:57:38.207Z,79.21
2022-08-10T07:58:46.310Z,79.22
2022-08-10T07:59:53.517Z,78.39
2022-08-10T08:00:57.803Z,77.27
2022-08-10T08:02:01.292Z,76.67
2022-08-10T08:03:04.569Z,77.73
2022-08-10T08:04:11.726Z,76.87
2022-08-10T08:05:54.926Z,77.57
2022-08-10T08:06:20.840Z,77.53
2022-08-10T08:07:23.480Z,77.07
2022-08-10T08:08:28.282Z,76.86
2022-08-10T08:09:32.867Z,77.05
2022-08-10T08:10:37.562Z,78.06
2022-08-10T08:11:43.455Z,79.54
2022-08-10T08:12:46.257Z,79.75
2022-08-10T08:13:51.613Z,79.09
2022-08-10T08:14:59.213Z,78.22
2022-08-10T08:16:21.363Z,78.10
2022-08-10T08:17:12.504Z,78.82
2022-08-10T08:18:24.853Z,79.16
2022-08-10T08:19:28.495Z,79.20
2022-08-10T08:20:33.485Z,79.15
2022-08-10T08:24:04.728Z,80.10
2022-08-10T08:24:06.550Z,80.55
2022-08-10T08:24:10.168Z,79.86
2022-08-10T08:24:54.674Z,80.56
2022-08-10T08:26:00.373Z,80.20
2022-08-10T08:27:06.315Z,80.76
2022-08-10T08:28:10.707Z,81.55
2022-08-10T08:29:14.037Z,81.04
2022-08-10T08:30:16.815Z,80.20
2022-08-10T08:31:24.572Z,79.45
2022-08-10T08:32:29.740Z,79.14
2022-08-10T08:33:41.169Z,79.85
2022-08-10T08:34:42.750Z,80.41
2022-08-10T08:35:49.236Z,80.24
2022-08-10T08:36:59.346Z,80.19
2022-08-10T08:38:31.827Z,80.98
2022-08-10T08:39:05.706Z,80.47
2022-08-10T08:40:11.911Z,80.95
2022-08-10T08:41:45.249Z,80.88
2022-08-10T08:43:02.805Z,80.46
2022-08-10T08:44:24.062Z,79.92
2022-08-10T08:45:50.961Z,79.73
2022-08-10T08:46:59.228Z,78.69
2022-08-10T08:48:12.346Z,79.10
2022-08-10T08:50:04.930Z,80.07
2022-08-10T08:50:45.652Z,80.34
2022-08-10T08:52:18.181Z,79.72
2022-08-10T08:54:01.582Z,79.22
2022-08-10T08:54:37.433Z,79.89
2022-08-10T08:56:06.939Z,81.29
2022-08-10T08:57:49.339Z,80.20
2022-08-10T08:58:52.018Z,80.10
2022-08-10T09:00:06.846Z,79.99
2022-08-10T09:01:46.873Z,78.78
2022-08-10T09:03:15.588Z,79.41
2022-08-10T09:04:43.153Z,77.63
2022-08-10T09:07:59.672Z,76.29
2022-08-10T09:08:57.006Z,77.07
2022-08-10T09:10:05.833Z,76.42
2022-08-10T09:11:21.006Z,75.79
2022-08-10T09:12:45.314Z,76.09
2022-08-10T09:14:08.252Z,76.94
2022-08-10T09:15:41.488Z,77.21
2022-08-10T09:16:56.643Z,77.00
2022-08-10T09:18:14.737Z,75.39
2022-08-10T09:19:36.324Z,73.81
2022-08-10T09:20:46.340Z,73.98
2022-08-10T09:22:13.453Z,73.53
2022-08-10T09:24:34.445Z,73.13
2022-08-10T09:25:39.505Z,73.24
2022-08-10T09:26:51.871Z,73.42
2022-08-10T09:27:57.800Z,72.33
2022-08-10T09:29:12.491Z,73.42
2022-08-10T09:30:08.760Z,75.21
2022-08-10T09:31:22.407Z,74.50
2022-08-10T09:36:13.511Z,74.70
2022-08-10T09:36:22.448Z,74.03
2022-08-10T09:36:27.870Z,73.22
2022-08-10T09:36:46.112Z,72.00
2022-08-10T09:38:04.345Z,72.11
2022-08-10T09:40:12.596Z,72.59
2022-08-10T09:41:01.267Z,73.00
2022-08-10T09:42:05.270Z,72.65
2022-08-10T09:43:25.478Z,72.77
2022-08-10T09:44:57.407Z,73.06
2022-08-10T09:46:11.918Z,73.34
2022-08-10T09:47:58.698Z,73.27
2022-08-10T09:48:44.793Z,74.05
2022-08-10T09:49:55.761Z,73.03
2022-08-10T09:51:44.734Z,72.48
2022-08-10T09:52:38.236Z,73.08
2022-08-10T09:54:02.274Z,71.96
2022-08-10T09:56:17.139Z,71.65
2022-08-10T09:57:24.553Z,71.44
2022-08-10T09:58:24.554Z,72.44
2022-08-10T10:00:00.337Z,72.41
2022-08-10T10:01:22.362Z,71.80
2022-08-10T10:02:36.496Z,71.89
2022-08-10T10:03:48.610Z,71.40
2022-08-10T10:06:56.836Z,72.64
2022-08-10T10:08:15.494Z,72.54
2022-08-10T10:09:26.670Z,72.32
2022-08-10T10:11:00.452Z,72.16
2022-08-10T10:12:23.085Z,71.92
2022-08-10T10:14:03.069Z,72.06
2022-08-10T10:15:24.153Z,71.98
2022-08-10T10:16:47.786Z,71.85
2022-08-10T10:18:22.259Z,72.68
2022-08-10T10:19:46.330Z,73.50
2022-08-10T10:20:55.529Z,73.10
2022-08-10T10:22:18.248Z,73.14
2022-08-10T10:23:41.296Z,72.02
2022-08-10T10:25:19.727Z,72.30
2022-08-10T10:26:22.954Z,73.44
2022-08-10T10:28:02.873Z,73.45
2022-08-10T10:29:56.748Z,73.17
2022-08-10T10:30:58.043Z,74.37
2022-08-10T10:32:09.957Z,73.57
2022-08-10T10:33:15.681Z,73.65
2022-08-10T10:34:27.649Z,74.05
2022-08-10T10:35:36.701Z,73.37
2022-08-10T10:36:41.881Z,73.49
2022-08-10T10:38:02.512Z,73.03
2022-08-10T10:38:53.369Z,72.26
2022-08-10T10:39:57.716Z,72.06
2022-08-10T10:41:23.466Z,72.37
2022-08-10T10:42:50.462Z,72.53
2022-08-10T10:44:05.572Z,72.68
2022-08-10T10:45:17.192Z,72.79
2022-08-10T10:46:43.430Z,72.57
2022-08-10T10:48:07.749Z,72.19
2022-08-10T10:49:30.578Z,72.70
2022-08-10T10:50:42.737Z,72.38
2022-08-10T10:51:55.115Z,72.37
2022-08-10T10:53:12.377Z,71.71
2022-08-10T10:54:28.428Z,71.73
2022-08-10T10:56:15.396Z,71.29
2022-08-10T10:57:03.296Z,70.93
2022-08-10T10:58:24.243Z,70.30
2022-08-10T11:00:05.851Z,70.65
2022-08-10T11:01:14.945Z,70.74
2022-08-10T11:02:33.095Z,69.87
2022-08-10T11:03:54.499Z,68.45
2022-08-10T11:05:12.703Z,67.32
2022-08-10T11:06:45.115Z,67.05
2022-08-10T11:08:02.981Z,66.57
2022-08-10T11:09:11.496Z,66.98
2022-08-10T11:10:32.543Z,66.76
2022-08-10T11:12:01.471Z,66.64
2022-08-10T11:14:29.745Z,66.18
2022-08-10T11:15:42.828Z,66.91
2022-08-10T11:16:57.329Z,66.76
2022-08-10T11:18:02.700Z,66.88
2022-08-10T11:19:17.843Z,66.57
2022-08-10T11:20:25.626Z,65.95
2022-08-10T11:21:46.656Z,64.94
2022-08-10T11:23:10.888Z,64.71
2022-08-10T11:24:47.431Z,64.83
2022-08-10T11:25:59.727Z,65.06
2022-08-10T11:27:11.893Z,64.01
2022-08-10T11:28:25.540Z,64.10
2022-08-10T11:29:34.655Z,64.32
2022-08-10T11:30:47.137Z,65.06
2022-08-10T11:31:59.271Z,65.25
2022-08-10T11:33:05.272Z,65.73
2022-08-10T11:34:47.002Z,64.98
2022-08-10T11:35:57.108Z,64.56
2022-08-10T11:37:10.509Z,64.10
2022-08-10T11:38:39.833Z,64.27
2022-08-10T11:39:48.892Z,64.73
2022-08-10T11:40:59.204Z,64.46
2022-08-10T11:42:16.116Z,64.28
2022-08-10T11:43:22.127Z,65.31
2022-08-10T11:44:46.815Z,65.24
2022-08-10T11:45:55.479Z,65.39
2022-08-10T11:47:12.997Z,65.55
2022-08-10T11:48:53.414Z,65.85
2022-08-10T11:49:39.083Z,66.33
2022-08-10T11:52:10.182Z,67.04
2022-08-10T11:53:24.774Z,66.65
2022-08-10T11:54:36.777Z,66.48
2022-08-10T11:55:41.825Z,65.09
2022-08-10T11:56:47.774Z,64.94
2022-08-10T11:57:55.886Z,64.56
2022-08-10T11:58:59.049Z,63.97
2022-08-10T12:00:01.452Z,63.85
2022-08-10T12:01:06.931Z,64.28
2022-08-10T12:02:12.545Z,64.25
2022-08-10T12:03:16.693Z,64.12
2022-08-10T12:04:21.512Z,64.78
2022-08-10T12:05:53.122Z,64.76
2022-08-10T12:06:55.343Z,64.98
2022-08-10T12:10:03.550Z,65.05
2022-08-10T12:10:03.973Z,64.97
2022-08-10T12:10:12.948Z,65.41
2022-08-10T12:11:12.732Z,65.53
2022-08-10T12:12:17.454Z,65.10
2022-08-10T12:13:26.481Z,64.71
2022-08-10T12:14:32.332Z,64.91
2022-08-10T12:15:47.444Z,65.74
2022-08-10T12:16:53.694Z,65.31
2022-08-10T12:17:59.706Z,64.75
2022-08-10T12:20:30.885Z,64.94
2022-08-10T12:21:48.921Z,64.61
2022-08-10T12:23:13.007Z,64.60
2022-08-10T12:24:22.024Z,64.80
2022-08-10T12:25:56.696Z,64.82
2022-08-10T12:27:13.241Z,64.37
2022-08-10T12:28:51.171Z,64.40
2022-08-10T12:31:12.837Z,64.42
2022-08-10T12:32:40.719Z,64.36
2022-08-10T12:36:17.446Z,64.92
2022-08-10T12:37:07.569Z,64.54
2022-08-10T12:38:16.379Z,64.51
2022-08-10T12:39:28.510Z,64.54
2022-08-10T12:40:36.347Z,64.27
2022-08-10T12:41:50.775Z,64.56
2022-08-10T12:44:07.666Z,64.15
2022-08-10T12:44:41.066Z,64.70
2022-08-10T12:45:47.539Z,65.53
2022-08-10T12:46:56.520Z,64.57
2022-08-10T12:48:05.021Z,64.19
2022-08-10T12:49:10.887Z,64.02
2022-08-10T12:50:33.494Z,64.35
2022-08-10T12:51:27.774Z,64.67
2022-08-10T12:52:39.680Z,64.39
2022-08-10T12:53:48.888Z,64.66
2022-08-10T12:54:54.848Z,64.64
2022-08-10T12:55:57.861Z,63.92
2022-08-10T12:57:07.035Z,63.95
2022-08-10T12:58:57.339Z,64.66
2022-08-10T12:59:21.152Z,64.87
2022-08-10T13:00:29.883Z,65.58
2022-08-10T13:02:06.162Z,65.75
2022-08-10T13:02:47.997Z,65.23
2022-08-10T13:04:22.511Z,65.66
2022-08-10T13:04:56.005Z,66.29
2022-08-10T13:06:02.972Z,66.36
2022-08-10T13:07:09.917Z,66.18
2022-08-10T13:08:27.057Z,66.11
2022-08-10T13:09:24.717Z,65.81
2022-08-10T13:10:30.363Z,65.16
2022-08-10T13:12:36.062Z,65.13
2022-08-10T13:12:44.447Z,66.10
2022-08-10T13:13:49.357Z,65.43
2022-08-10T13:14:58.357Z,65.59
2022-08-10T13:16:03.774Z,65.41
2022-08-10T13:17:07.568Z,65.83
2022-08-10T13:18:17.883Z,65.84
2022-08-10T13:19:20.152Z,65.57
2022-08-10T13:20:33.319Z,65.26
2022-08-10T13:21:38.028Z,65.32
2022-08-10T13:22:42.533Z,65.98
2022-08-10T13:24:04.356Z,65.81
2022-08-10T13:25:02.034Z,65.81
2022-08-10T13:26:07.755Z,66.12
2022-08-10T13:27:26.134Z,66.26
2022-08-10T13:28:39.861Z,66.32
2022-08-10T13:29:49.626Z,66.37
2022-08-10T13:30:57.383Z,66.41
2022-08-10T13:32:09.300Z,65.87
2022-08-10T13:34:42.426Z,66.14
2022-08-10T13:35:37.641Z,66.36
2022-08-10T13:36:42.266Z,66.22
2022-08-10T13:37:49.530Z,66.05
2022-08-10T13:38:57.536Z,66.08
2022-08-10T13:40:01.635Z,66.22
2022-08-10T13:41:05.454Z,65.78
2022-08-10T13:42:11.036Z,66.19
2022-08-10T13:43:15.902Z,65.58
2022-08-10T13:45:33.080Z,66.41
2022-08-10T13:46:37.311Z,66.76
2022-08-10T13:47:49.649Z,66.81
2022-08-10T13:48:46.764Z,66.79
2022-08-10T13:49:51.872Z,66.84
2022-08-10T13:51:00.444Z,66.84
2022-08-10T13:52:03.324Z,66.17
2022-08-10T13:53:15.483Z,65.74
2022-08-10T13:54:21.506Z,65.31
2022-08-10T13:55:27.624Z,66.46
2022-08-10T13:56:34.912Z,66.27
2022-08-10T13:57:47.643Z,66.05
2022-08-10T13:58:47.052Z,66.01
2022-08-10T14:00:34.904Z,65.90
2022-08-10T14:01:02.310Z,65.94
2022-08-10T14:02:05.421Z,65.99
2022-08-10T14:03:20.020Z,65.89
2022-08-10T14:04:22.874Z,65.86
2022-08-10T14:05:28.898Z,66.10
2022-08-10T14:06:33.100Z,66.45
2022-08-10T14:07:53.514Z,66.04
2022-08-10T14:08:48.847Z,65.97
2022-08-10T14:09:54.691Z,65.98
2022-08-10T14:11:10.975Z,65.46
2022-08-10T14:12:11.646Z,65.67
2022-08-10T14:13:16.342Z,65.13
2022-08-10T14:14:21.450Z,64.95
2022-08-10T14:15:55.973Z,64.71
2022-08-10T14:17:00.306Z,64.45
2022-08-10T14:18:05.333Z,64.59
2022-08-10T14:19:11.286Z,64.62
2022-08-10T14:20:21.358Z,64.77
2022-08-10T14:21:21.702Z,64.52
2022-08-10T14:22:33.620Z,65.07
2022-08-10T14:23:30.400Z,65.28
2022-08-10T14:24:33.286Z,64.40
2022-08-10T14:25:57.592Z,63.30
2022-08-10T14:27:03.672Z,63.13
2022-08-10T14:28:06.123Z,63.46
2022-08-10T14:29:19.092Z,63.61
2022-08-10T14:31:33.002Z,63.36
2022-08-10T14:32:41.845Z,63.82
2022-08-10T14:33:50.926Z,64.39
2022-08-10T14:36:15.347Z,63.97
2022-08-10T14:36:21.250Z,63.86
2022-08-10T14:37:07.658Z,64.29
2022-08-10T14:38:16.748Z,64.14
2022-08-10T14:39:27.758Z,63.85
2022-08-10T14:40:32.110Z,64.68
2022-08-10T14:42:03.156Z,64.05
2022-08-10T14:43:02.478Z,64.46
2022-08-10T14:44:08.505Z,64.17
2022-08-10T14:45:29.867Z,64.09
2022-08-10T14:46:32.721Z,64.12
2022-08-10T14:47:53.906Z,64.00
2022-08-10T14:48:45.959Z,63.95
2022-08-10T14:49:57.665Z,63.52
2022-08-10T14:50:56.246Z,63.43
2022-08-10T14:52:02.422Z,63.77
2022-08-10T14:53:09.616Z,63.85
2022-08-10T14:54:14.403Z,64.21
2022-08-10T14:55:19.553Z,63.90
2022-08-10T14:56:29.472Z,64.61
2022-08-10T14:58:17.214Z,65.04
2022-08-10T14:58:58.955Z,64.97
2022-08-10T15:00:21.097Z,63.86
2022-08-10T15:01:06.219Z,64.33
2022-08-10T15:02:38.530Z,64.59
2022-08-10T15:03:59.160Z,64.71
2022-08-10T15:04:26.514Z,64.07
2022-08-10T15:05:39.382Z,64.64
2022-08-10T15:06:53.497Z,63.84
2022-08-10T15:07:59.465Z,64.83
2022-08-10T15:09:12.646Z,64.90
2022-08-10T15:10:18.659Z,65.39
2022-08-10T15:12:15.293Z,65.11